Time;durP1;ratioP1;P1;durP2;ratioP2;P2;SDS_P1;SDS_P2;PMS_P1;PMS_P2;Temp;Humidity;BMP_temperature;BMP_pressure;BME280_temperature;BME280_humidity;BME280_pressure;Samples;Min_cycle;Max_cycle;Signal;HPM_P1;HPM_P2
2021/06/30 00:01:47;;;;;;;3.67;2.30;;;;;;;13.57;61.02;100952.22;5073091;28;20053;-69
2021/06/30 00:04:13;;;;;;;3.65;2.20;;;;;;;13.55;61.11;100948.84;5072923;28;20056;-69
2021/06/30 00:06:40;;;;;;;3.72;2.10;;;;;;;13.38;62.00;100962.97;5072950;28;20053;-69
2021/06/30 00:09:07;;;;;;;3.00;1.92;;;;;;;13.42;62.08;100971.50;5072766;28;20049;-69
2021/06/30 00:11:34;;;;;;;5.95;2.30;;;;;;;13.35;62.26;100971.03;5072552;28;20056;-70
2021/06/30 00:14:01;;;;;;;3.88;2.30;;;;;;;13.22;62.43;100977.94;5072866;28;20081;-70
2021/06/30 00:16:32;;;;;;;;;;;;;;;13.21;62.94;100973.66;5072761;28;20505;-70
2021/06/30 00:18:59;;;;;;;2.33;1.75;;;;;;;13.32;62.12;100967.78;5072420;28;20286;-70
2021/06/30 00:21:27;;;;;;;3.92;2.22;;;;;;;13.31;61.86;100963.47;5072218;28;20052;-70
2021/06/30 00:23:53;;;;;;;3.67;2.42;;;;;;;13.05;64.06;100958.09;5071555;28;20057;-70
2021/06/30 00:26:20;;;;;;;3.78;2.30;;;;;;;12.90;63.89;100948.59;5071977;28;20048;-70
2021/06/30 00:28:47;;;;;;;;;;;;;;;12.84;63.72;100950.66;5073206;28;20055;-70
2021/06/30 00:31:15;;;;;;;5.15;2.20;;;;;;;12.98;63.05;100967.25;5072778;28;19920;-70
2021/06/30 00:33:43;;;;;;;2.83;2.03;;;;;;;13.12;62.29;100969.81;5072104;28;20045;-69
2021/06/30 00:36:10;;;;;;;3.67;2.13;;;;;;;12.89;63.01;100970.41;5072541;28;20051;-69
2021/06/30 00:38:37;;;;;;;5.38;2.47;;;;;;;12.76;64.47;100973.75;5072110;28;20044;-70
2021/06/30 00:41:05;;;;;;;3.63;1.92;;;;;;;12.87;63.31;100978.34;5072428;28;20063;-69
2021/06/30 00:43:32;;;;;;;3.55;2.40;;;;;;;12.68;65.02;100968.16;5072264;28;20048;-69
2021/06/30 00:45:58;;;;;;;4.25;2.35;;;;;;;12.77;63.61;100966.78;5072288;28;20048;-69
2021/06/30 00:48:25;;;;;;;2.92;2.20;;;;;;;12.69;64.34;100963.78;5071641;28;20063;-69
2021/06/30 00:50:54;;;;;;;4.72;2.40;;;;;;;12.68;64.17;100970.78;5072512;28;20052;-69
2021/06/30 00:53:21;;;;;;;4.80;2.40;;;;;;;12.52;64.96;100976.09;5071924;28;20052;-69
2021/06/30 00:55:51;;;;;;;3.88;2.20;;;;;;;12.52;64.09;100973.47;5072384;28;20045;-69
2021/06/30 00:58:18;;;;;;;4.18;2.08;;;;;;;12.36;65.11;100976.16;5072248;28;20052;-70
2021/06/30 01:00:45;;;;;;;;;;;;;;;12.50;64.21;100984.94;5072401;28;20052;-70
2021/06/30 01:03:12;;;;;;;3.65;2.35;;;;;;;12.32;65.79;100990.28;5072233;28;20019;-69
2021/06/30 01:05:39;;;;;;;4.90;2.08;;;;;;;12.45;64.60;100987.81;5071988;28;20051;-70
2021/06/30 01:08:08;;;;;;;3.00;2.03;;;;;;;12.43;64.21;100992.28;5072029;28;20387;-70
2021/06/30 01:10:35;;;;;;;3.78;2.00;;;;;;;12.55;63.76;100990.72;5072066;28;20056;-70
2021/06/30 01:13:04;;;;;;;;;;;;;;;12.53;63.99;100995.19;5072673;28;20049;-70
2021/06/30 01:15:31;;;;;;;3.88;1.88;;;;;;;12.62;62.91;101000.69;5071819;28;19935;-70
2021/06/30 01:17:58;;;;;;;3.15;1.95;;;;;;;12.65;63.18;101007.50;5071986;28;20060;-69
2021/06/30 01:20:25;;;;;;;3.10;2.00;;;;;;;12.50;64.20;101005.81;5071777;28;20052;-70
2021/06/30 01:23:07;;;;;;;3.90;2.03;;;;;;;12.61;63.60;101006.88;5071638;28;20410;-70
2021/06/30 01:25:34;;;;;;;5.18;2.40;;;;;;;12.83;63.59;101013.41;5071336;28;20495;-69
2021/06/30 01:28:00;;;;;;;2.53;1.85;;;;;;;12.77;63.88;101011.16;5071654;28;20510;-69
2021/06/30 01:30:27;;;;;;;2.78;1.80;;;;;;;12.74;63.67;101013.94;5071605;28;20045;-69
2021/06/30 01:32:54;;;;;;;4.57;2.00;;;;;;;12.75;63.84;101021.69;5071645;28;20053;-69
2021/06/30 01:35:23;;;;;;;3.05;1.92;;;;;;;12.81;63.39;101028.31;5074672;28;20131;-69
2021/06/30 01:37:50;;;;;;;3.63;2.38;;;;;;;12.94;62.21;101031.88;5075403;28;20044;-69
2021/06/30 01:40:20;;;;;;;4.45;1.90;;;;;;;12.93;62.77;101024.97;5075426;28;20490;-69
2021/06/30 01:42:48;;;;;;;3.08;1.67;;;;;;;13.15;61.72;101021.88;5075559;28;20044;-69
2021/06/30 01:45:16;;;;;;;3.20;1.95;;;;;;;12.94;62.07;101023.19;5075429;28;20048;-69
2021/06/30 01:47:43;;;;;;;3.63;2.17;;;;;;;12.93;63.13;101026.75;5075566;28;20048;-70
2021/06/30 01:50:11;;;;;;;3.85;1.98;;;;;;;13.01;62.48;101029.72;5075122;28;20052;-69
2021/06/30 01:52:38;;;;;;;4.35;1.83;;;;;;;13.15;61.30;101029.72;5074868;28;20060;-69
2021/06/30 01:55:05;;;;;;;;;;;;;;;13.16;60.74;101034.03;5075607;28;20056;-69
2021/06/30 01:57:38;;;;;;;3.17;1.70;;;;;;;13.06;61.43;101032.91;5075184;28;20271;-69
2021/06/30 02:00:06;;;;;;;4.00;1.90;;;;;;;12.95;62.65;101033.56;5075320;28;20079;-69
2021/06/30 02:02:33;;;;;;;2.90;1.75;;;;;;;13.05;62.82;101039.06;5075060;28;20048;-70
2021/06/30 02:05:10;;;;;;;2.83;1.80;;;;;;;13.08;62.01;101034.50;5074854;28;20055;-70
2021/06/30 02:07:37;;;;;;;4.90;2.00;;;;;;;13.02;61.69;101040.09;5075017;28;20044;-70
2021/06/30 02:10:07;;;;;;;2.63;1.58;;;;;;;13.06;61.40;101035.50;5075198;28;20055;-69
2021/06/30 02:12:37;;;;;;;2.90;1.70;;;;;;;12.91;62.12;101031.22;5074838;28;20052;-69
2021/06/30 02:15:06;;;;;;;3.13;1.75;;;;;;;12.94;61.00;101029.25;5075081;28;20049;-70
2021/06/30 02:17:33;;;;;;;3.03;1.63;;;;;;;13.02;60.44;101024.44;5074791;28;20049;-69
2021/06/30 02:20:00;;;;;;;;;;;;;;;12.88;61.13;101032.25;5075499;28;20052;-69
2021/06/30 02:22:26;;;;;;;4.63;1.67;;;;;;;12.81;62.27;101033.53;5074363;28;19920;-69
2021/06/30 02:24:56;;;;;;;3.40;1.90;;;;;;;12.77;61.70;101035.50;5074584;28;20438;-69
2021/06/30 02:27:23;;;;;;;2.50;1.67;;;;;;;12.96;60.62;101032.63;5074277;28;20048;-69
2021/06/30 02:29:51;;;;;;;;;;;;;;;13.04;60.82;101035.59;5075281;28;20048;-69
2021/06/30 02:32:18;;;;;;;3.38;1.80;;;;;;;13.02;60.40;101047.06;5074648;28;19920;-69
2021/06/30 02:34:44;;;;;;;2.13;1.40;;;;;;;13.15;59.63;101041.94;5074277;28;20517;-69
2021/06/30 02:37:11;;;;;;;2.67;1.50;;;;;;;13.06;61.09;101048.56;5074730;28;20049;-69
2021/06/30 02:39:38;;;;;;;4.18;1.75;;;;;;;13.15;59.81;101045.38;5074415;28;20063;-70
2021/06/30 02:42:05;;;;;;;1.65;1.35;;;;;;;13.23;59.09;101052.75;5074222;28;20411;-69
2021/06/30 02:44:32;;;;;;;2.05;1.42;;;;;;;13.15;60.53;101039.31;5074055;28;20051;-69
2021/06/30 02:47:00;;;;;;;2.55;1.40;;;;;;;13.29;61.01;101048.03;5073412;28;20055;-69
2021/06/30 02:49:27;;;;;;;4.57;1.77;;;;;;;13.39;61.81;101045.69;5073774;28;20055;-69
2021/06/30 02:51:54;;;;;;;1.90;1.50;;;;;;;13.63;59.64;101051.16;5074450;28;20048;-69
2021/06/30 02:54:20;;;;;;;2.17;1.70;;;;;;;13.77;59.09;101042.47;5073838;28;20063;-69
2021/06/30 02:56:47;;;;;;;1.80;1.40;;;;;;;13.88;58.74;101054.84;5074327;28;20052;-69
2021/06/30 02:59:14;;;;;;;2.50;1.25;;;;;;;13.99;58.59;101062.00;5074108;28;20502;-70
2021/06/30 03:01:41;;;;;;;3.13;1.30;;;;;;;13.81;59.20;101064.00;5074008;28;20048;-70
2021/06/30 03:04:09;;;;;;;1.38;1.02;;;;;;;13.98;57.73;101060.31;5073921;28;20044;-69
2021/06/30 03:06:36;;;;;;;2.50;1.17;;;;;;;14.06;56.36;101060.66;5073479;28;20387;-69
2021/06/30 03:09:03;;;;;;;2.08;1.10;;;;;;;14.09;57.00;101065.69;5073816;28;20049;-69
2021/06/30 03:11:30;;;;;;;2.15;1.13;;;;;;;13.83;58.04;101072.59;5073543;28;20049;-69
2021/06/30 03:13:56;;;;;;;1.48;1.17;;;;;;;13.75;59.19;101069.63;5074034;28;20052;-70
2021/06/30 03:16:23;;;;;;;1.38;1.27;;;;;;;13.86;58.00;101069.78;5073432;28;20044;-69
2021/06/30 03:18:50;;;;;;;1.60;1.10;;;;;;;13.88;59.30;101066.13;5073831;28;20059;-69
2021/06/30 03:21:18;;;;;;;2.75;1.27;;;;;;;14.15;58.57;101065.28;5073783;28;20053;-69
2021/06/30 03:23:45;;;;;;;1.73;1.15;;;;;;;14.22;57.86;101065.72;5073523;28;20048;-69
2021/06/30 03:26:12;;;;;;;2.38;1.20;;;;;;;14.51;56.93;101076.91;5073705;28;20044;-69
2021/06/30 03:28:39;;;;;;;2.75;1.17;;;;;;;14.77;55.17;101076.03;5073100;28;20396;-69
2021/06/30 03:31:06;;;;;;;1.27;1.05;;;;;;;14.85;54.57;101075.53;5073368;28;20044;-69
2021/06/30 03:33:32;;;;;;;1.63;1.10;;;;;;;14.98;54.75;101078.97;5073177;28;20049;-70
2021/06/30 03:35:59;;;;;;;2.88;1.05;;;;;;;14.87;55.86;101076.22;5073672;28;20045;-69
2021/06/30 03:38:27;;;;;;;1.20;0.90;;;;;;;14.80;54.11;101069.75;5073051;28;20411;-69
2021/06/30 03:40:54;;;;;;;1.85;1.20;;;;;;;14.59;54.80;101080.72;5073425;28;20059;-69
2021/06/30 03:43:21;;;;;;;1.40;0.95;;;;;;;14.69;54.03;101083.56;5072850;28;20052;-69
2021/06/30 03:45:48;;;;;;;2.25;1.10;;;;;;;14.67;55.76;101081.97;5073189;28;20045;-69
2021/06/30 03:48:15;;;;;;;2.17;1.02;;;;;;;14.71;55.43;101083.47;5073120;28;20430;-69
2021/06/30 03:50:41;;;;;;;2.00;0.90;;;;;;;14.73;54.52;101079.78;5073279;28;20060;-69
2021/06/30 03:53:08;;;;;;;1.35;0.90;;;;;;;14.91;54.46;101087.34;5073328;28;20083;-69
2021/06/30 03:55:36;;;;;;;2.63;0.82;;;;;;;14.87;56.07;101086.72;5072560;28;20521;-69
2021/06/30 03:58:03;;;;;;;0.85;0.80;;;;;;;14.89;56.29;101084.00;5072973;28;20048;-69
2021/06/30 04:00:30;;;;;;;1.83;0.82;;;;;;;15.12;54.33;101091.13;5072539;28;20441;-70
2021/06/30 04:02:57;;;;;;;1.55;0.80;;;;;;;15.10;53.65;101087.75;5072603;28;20060;-69
2021/06/30 04:05:24;;;;;;;1.55;0.80;;;;;;;15.11;54.58;101088.63;5072658;28;20048;-69
2021/06/30 04:07:51;;;;;;;;;;;;;;;15.06;53.40;101093.34;5073478;28;20105;-69
2021/06/30 04:10:18;;;;;;;1.50;0.80;;;;;;;14.92;54.30;101089.03;5072818;28;19928;-69
2021/06/30 04:12:46;;;;;;;1.60;0.93;;;;;;;15.06;54.13;101090.72;5072535;28;20040;-69
2021/06/30 04:15:14;;;;;;;1.10;1.00;;;;;;;15.21;54.10;101093.13;5072733;28;20048;-69
2021/06/30 04:17:41;;;;;;;2.10;1.08;;;;;;;15.42;54.35;101085.53;5072363;28;20048;-69
2021/06/30 04:20:10;;;;;;;3.08;1.20;;;;;;;15.63;52.35;101083.19;5072490;28;20048;-69
2021/06/30 04:22:38;;;;;;;1.17;0.88;;;;;;;15.89;53.99;101086.59;5072055;28;20063;-69
2021/06/30 04:25:06;;;;;;;1.25;0.80;;;;;;;15.92;52.76;101087.31;5072351;28;20045;-69
2021/06/30 04:27:33;;;;;;;1.83;0.90;;;;;;;16.16;51.62;101085.56;5071777;28;20044;-69
2021/06/30 04:30:02;;;;;;;1.73;0.90;;;;;;;16.51;50.79;101080.31;5072685;28;20057;-69
2021/06/30 04:32:29;;;;;;;1.83;1.00;;;;;;;16.61;50.59;101082.25;5072246;28;20044;-69
2021/06/30 04:34:56;;;;;;;;;;;;;;;16.73;51.29;101090.03;5072771;28;20402;-69
2021/06/30 04:37:22;;;;;;;4.28;1.60;;;;;;;16.81;50.81;101092.13;5071756;28;19924;-69
2021/06/30 04:39:49;;;;;;;1.20;0.77;;;;;;;16.81;50.85;101096.56;5072524;28;20052;-69
2021/06/30 04:42:18;;;;;;;1.40;0.95;;;;;;;16.90;51.30;101098.47;5072428;28;20410;-69
2021/06/30 04:44:45;;;;;;;1.80;1.10;;;;;;;16.98;51.06;101098.75;5071998;28;20083;-69
2021/06/30 04:47:13;;;;;;;;;;;;;;;17.15;49.92;101100.88;5072465;28;20040;-70
2021/06/30 04:49:40;;;;;;;1.83;0.90;;;;;;;17.08;51.85;101098.84;5071813;28;19924;-70
2021/06/30 04:52:06;;;;;;;;;;;;;;;17.08;50.30;101098.84;5072709;28;20060;-71
2021/06/30 04:54:33;;;;;;;2.33;1.30;;;;;;;17.06;50.80;101104.25;5071728;28;20382;-68
2021/06/30 04:57:00;;;;;;;;;;;;;;;17.18;50.77;101102.44;5072771;28;20045;-68
2021/06/30 04:59:27;;;;;;;2.33;1.35;;;;;;;17.18;50.50;101102.44;5071660;28;19927;-68
2021/06/30 05:01:53;;;;;;;;;;;;;;;17.24;50.68;101115.13;5072654;28;20051;-68
2021/06/30 05:04:22;;;;;;;1.42;0.98;;;;;;;16.86;51.59;101105.75;5071891;28;19920;-68
2021/06/30 05:06:49;;;;;;;1.67;1.00;;;;;;;16.94;51.91;101110.44;5071795;28;20583;-68
2021/06/30 05:09:15;;;;;;;2.17;1.15;;;;;;;17.09;51.65;101108.41;5071325;28;20419;-68
2021/06/30 05:11:42;;;;;;;1.70;1.10;;;;;;;17.13;50.83;101109.84;5071924;28;20056;-68
2021/06/30 05:14:10;;;;;;;2.65;1.30;;;;;;;16.94;53.11;101111.25;5072059;28;20048;-68
2021/06/30 05:16:37;;;;;;;1.95;1.10;;;;;;;16.79;54.23;101115.03;5071397;28;20048;-68
2021/06/30 05:19:04;;;;;;;2.42;1.20;;;;;;;16.91;53.76;101115.91;5071793;28;20044;-68
2021/06/30 05:21:32;;;;;;;;;;;;;;;16.81;52.41;101117.56;5072291;28;20052;-67
2021/06/30 05:23:58;;;;;;;2.63;1.30;;;;;;;16.82;53.08;101120.06;5071759;28;19932;-68
2021/06/30 05:26:25;;;;;;;3.08;1.17;;;;;;;16.77;53.24;101127.41;5071658;28;20044;-68
2021/06/30 05:28:52;;;;;;;2.58;1.27;;;;;;;16.83;53.11;101132.28;5071895;28;20055;-68
2021/06/30 05:31:19;;;;;;;1.70;1.13;;;;;;;16.70;56.87;101139.38;5071562;28;20053;-68
2021/06/30 05:33:46;;;;;;;2.65;1.10;;;;;;;16.92;52.15;101141.22;5071634;28;20044;-68
2021/06/30 05:36:13;;;;;;;1.38;1.10;;;;;;;16.98;53.39;101149.50;5071920;28;20075;-68
2021/06/30 05:38:42;;;;;;;1.30;1.02;;;;;;;16.89;53.88;101150.19;5071607;28;20053;-68
2021/06/30 05:41:09;;;;;;;1.15;0.85;;;;;;;17.31;54.59;101152.28;5071405;28;20526;-68
2021/06/30 05:43:36;;;;;;;2.42;1.00;;;;;;;17.40;53.65;101152.41;5071194;28;20060;-68
2021/06/30 05:46:04;;;;;;;1.20;1.00;;;;;;;17.70;52.42;101155.41;5071689;28;20136;-67
2021/06/30 05:48:31;;;;;;;2.00;1.00;;;;;;;17.81;50.21;101153.63;5070923;28;20430;-67
2021/06/30 05:50:58;;;;;;;1.35;0.90;;;;;;;17.78;52.26;101153.84;5071829;28;20067;-66
2021/06/30 05:53:25;;;;;;;1.92;0.93;;;;;;;17.90;51.55;101153.84;5071149;28;20044;-66
2021/06/30 05:55:53;;;;;;;;;;;;;;;17.63;50.53;101155.91;5072156;28;20045;-66
2021/06/30 05:58:20;;;;;;;1.23;0.80;;;;;;;17.73;53.15;101165.72;5071103;28;19928;-66
2021/06/30 06:00:47;;;;;;;;;;;;;;;17.57;51.59;101164.28;5071965;28;20067;-67
2021/06/30 06:03:13;;;;;;;2.45;1.10;;;;;;;17.60;50.70;101156.13;5071234;28;20379;-67
2021/06/30 06:05:40;;;;;;;1.75;1.00;;;;;;;17.43;51.36;101151.34;5071321;28;20049;-67
2021/06/30 06:08:07;;;;;;;3.70;1.00;;;;;;;17.40;53.63;101156.84;5071406;28;20045;-67
2021/06/30 06:10:34;;;;;;;1.83;1.00;;;;;;;17.46;51.48;101148.47;5071020;28;20059;-67
2021/06/30 06:13:03;;;;;;;1.58;0.90;;;;;;;17.16;52.05;101155.16;5071361;28;20055;-67
2021/06/30 06:15:30;;;;;;;1.50;1.10;;;;;;;17.18;52.23;101155.84;5071086;28;20060;-66
2021/06/30 06:17:57;;;;;;;1.75;1.10;;;;;;;17.16;52.20;101159.56;5071119;28;20611;-67
2021/06/30 06:20:24;;;;;;;0.98;0.80;;;;;;;17.38;52.31;101150.88;5071241;28;20048;-67
2021/06/30 06:22:50;;;;;;;1.00;0.90;;;;;;;17.15;54.53;101156.09;5075003;28;20060;-67
2021/06/30 06:25:17;;;;;;;1.55;0.93;;;;;;;17.35;52.78;101159.00;5074862;28;20044;-67
2021/06/30 06:27:44;;;;;;;1.92;0.80;;;;;;;17.72;50.86;101164.00;5074358;28;20403;-67
2021/06/30 06:30:14;;;;;;;2.08;0.70;;;;;;;17.80;50.21;101173.03;5074544;28;20056;-67
2021/06/30 06:32:41;;;;;;;1.42;0.90;;;;;;;17.80;51.01;101166.91;5074235;28;20407;-68
2021/06/30 06:35:08;;;;;;;;;;;;;;;17.90;51.14;101164.38;5075177;28;20044;-67
2021/06/30 06:37:37;;;;;;;1.52;1.00;;;;;;;17.68;49.65;101162.59;5074007;28;19920;-67
2021/06/30 06:40:05;;;;;;;1.55;0.90;;;;;;;17.66;49.40;101161.88;5074706;28;20048;-67
2021/06/30 06:42:32;;;;;;;1.50;0.80;;;;;;;17.73;49.93;101158.63;5074263;28;20048;-67
2021/06/30 06:44:59;;;;;;;0.75;0.75;;;;;;;17.48;51.08;101169.41;5074674;28;20052;-67
2021/06/30 06:47:27;;;;;;;;;;;;;;;17.08;52.83;101167.19;5074563;28;20045;-68
2021/06/30 06:49:54;;;;;;;2.67;1.50;;;;;;;17.42;51.16;101166.28;5073968;28;20374;-68
2021/06/30 06:52:21;;;;;;;1.73;0.88;;;;;;;17.51;50.36;101164.72;5074106;28;20055;-68
2021/06/30 06:54:48;;;;;;;1.48;0.85;;;;;;;17.47;50.96;101167.72;5074515;28;20060;-68
2021/06/30 06:57:15;;;;;;;1.48;0.93;;;;;;;17.61;50.72;101170.94;5074428;28;20049;-68
2021/06/30 06:59:41;;;;;;;2.33;0.68;;;;;;;17.59;49.28;101170.22;5074313;28;20410;-67
2021/06/30 07:02:08;;;;;;;;;;;;;;;17.67;50.90;101176.69;5074634;28;20063;-67
2021/06/30 07:04:37;;;;;;;1.95;0.90;;;;;;;18.02;49.15;101177.41;5073790;28;19921;-68
2021/06/30 07:07:04;;;;;;;1.48;1.02;;;;;;;17.89;50.47;101181.16;5074171;28;20055;-68
2021/06/30 07:09:31;;;;;;;3.22;1.05;;;;;;;17.98;49.09;101188.31;5073949;28;20148;-68
2021/06/30 07:11:57;;;;;;;;;;;;;;;17.80;50.23;101187.97;5074537;28;20049;-68
2021/06/30 07:14:24;;;;;;;;;;;;;;;17.72;51.00;101182.44;5073976;28;19951;-68
2021/06/30 07:16:50;;;;;;;;;;;;;;;17.65;51.19;101182.09;5074177;28;19920;-68
2021/06/30 07:19:17;;;;;;;;;;;;;;;17.80;51.44;101186.19;5074361;28;19928;-69
2021/06/30 07:21:45;;;;;;;1.15;0.85;;;;;;;18.35;48.55;101191.47;5072748;28;19920;-69
2021/06/30 07:24:12;;;;;;;2.08;0.93;;;;;;;18.71;49.12;101190.25;5073020;28;20052;-68
2021/06/30 07:26:39;;;;;;;1.67;0.77;;;;;;;18.81;49.12;101193.00;5073272;28;20107;-68
2021/06/30 07:29:09;;;;;;;1.90;0.82;;;;;;;19.08;48.25;101189.84;5073903;28;20053;-69
2021/06/30 07:31:36;;;;;;;1.88;1.02;;;;;;;19.64;45.49;101185.16;5072804;28;20044;-69
2021/06/30 07:34:02;;;;;;;;;;;;;;;20.42;45.83;101184.41;5074163;28;20079;-69
2021/06/30 07:36:29;;;;;;;;;;;;;;;21.09;42.70;101184.53;5074044;28;20286;-69
2021/06/30 07:38:57;;;;;;;2.13;0.95;;;;;;;21.65;42.85;101182.84;5073480;28;19943;-67
2021/06/30 07:41:24;;;;;;;3.28;0.90;;;;;;;21.14;41.39;101184.09;5072867;28;20055;-67
2021/06/30 07:43:50;;;;;;;;;;;;;;;20.93;40.61;101176.34;5073585;28;20056;-67
2021/06/30 07:46:17;;;;;;;1.30;1.05;;;;;;;20.53;43.35;101187.91;5073240;28;19943;-69
2021/06/30 07:48:44;;;;;;;1.48;1.02;;;;;;;22.15;40.47;101185.09;5072820;28;20143;-67
2021/06/30 07:51:11;;;;;;;2.17;1.00;;;;;;;22.07;40.14;101188.50;5072973;28;20067;-67
2021/06/30 07:53:40;;;;;;;2.17;0.95;;;;;;;21.48;41.56;101187.13;5072971;28;20079;-66
2021/06/30 07:56:09;;;;;;;1.20;0.90;;;;;;;21.20;42.45;101194.97;5073136;28;20044;-67
2021/06/30 07:58:36;;;;;;;1.92;0.90;;;;;;;21.03;42.65;101203.63;5072745;28;20127;-68
2021/06/30 08:01:03;;;;;;;;;;;;;;;21.17;42.58;101199.69;5073267;28;20044;-67
2021/06/30 08:03:30;;;;;;;0.80;0.80;;;;;;;21.55;42.20;101192.66;5072681;28;20006;-68
2021/06/30 08:05:56;;;;;;;;;;;;;;;20.54;42.48;101194.84;5073172;28;20435;-68
2021/06/30 08:08:23;;;;;;;0.60;0.60;;;;;;;20.21;43.74;101203.00;5072511;28;19927;-68
2021/06/30 08:10:50;;;;;;;;;;;;;;;20.41;40.86;101205.69;5073339;28;20059;-68
2021/06/30 08:13:18;;;;;;;2.88;0.75;;;;;;;22.64;39.10;101198.88;5072732;28;19928;-68
2021/06/30 08:15:45;;;;;;;3.83;0.85;;;;;;;22.55;35.73;101208.53;5072728;28;20059;-68
2021/06/30 08:18:12;;;;;;;1.80;0.60;;;;;;;23.52;34.70;101206.81;5072359;28;20521;-68
2021/06/30 08:20:39;;;;;;;1.75;0.60;;;;;;;23.51;36.61;101206.97;5072154;28;20060;-69
2021/06/30 08:23:06;;;;;;;0.98;0.60;;;;;;;24.68;33.24;101215.00;5072207;28;20211;-68
2021/06/30 08:25:33;;;;;;;1.45;0.50;;;;;;;24.54;33.40;101210.34;5072266;28;20048;-68
2021/06/30 08:28:00;;;;;;;0.75;0.55;;;;;;;23.98;32.28;101209.19;5072505;28;20376;-68
2021/06/30 08:30:28;;;;;;;0.50;0.45;;;;;;;25.17;30.88;101215.00;5072003;28;20139;-68
2021/06/30 08:32:55;;;;;;;1.02;0.60;;;;;;;24.63;31.65;101216.50;5072158;28;20414;-68
2021/06/30 08:35:22;;;;;;;0.55;0.40;;;;;;;23.72;32.51;101212.75;5071748;28;20059;-68
2021/06/30 08:37:50;;;;;;;0.47;0.40;;;;;;;24.16;30.94;101220.53;5072107;28;20434;-68
2021/06/30 08:40:17;;;;;;;0.52;0.40;;;;;;;22.83;32.30;101227.03;5072353;28;20052;-67
2021/06/30 08:42:45;;;;;;;0.43;0.40;;;;;;;22.32;33.11;101217.94;5072108;28;20052;-67
2021/06/30 08:45:12;;;;;;;1.33;0.52;;;;;;;22.25;33.09;101228.31;5071414;28;20056;-68
2021/06/30 08:47:42;;;;;;;1.63;0.40;;;;;;;23.58;30.86;101229.25;5071632;28;20048;-67
2021/06/30 08:50:11;;;;;;;0.77;0.40;;;;;;;24.58;30.87;101227.63;5071789;28;20090;-67
2021/06/30 08:52:38;;;;;;;0.40;0.40;;;;;;;25.14;28.71;101241.13;5071879;28;20490;-67
2021/06/30 08:55:07;;;;;;;0.63;0.40;;;;;;;25.71;29.60;101243.69;5072224;28;20049;-67
2021/06/30 08:57:35;;;;;;;1.67;0.70;;;;;;;24.21;29.26;101231.53;5071903;28;20055;-68
2021/06/30 09:00:02;;;;;;;0.50;0.40;;;;;;;24.34;30.40;101242.53;5072046;28;20056;-68
2021/06/30 09:02:28;;;;;;;0.65;0.30;;;;;;;25.29;30.12;101250.13;5071499;28;20053;-68
2021/06/30 09:07:43;;;;;;;0.35;0.30;;;;;;;27.08;27.45;101250.25;5045842;28;20036;-69
2021/06/30 09:10:29;;;;;;;1.25;0.50;;;;;;;27.83;25.82;101253.84;5072318;28;20049;-69
2021/06/30 09:12:56;;;;;;;;;;;;;;;28.23;25.87;101255.16;5072343;28;20486;-68
2021/06/30 09:15:27;;;;;;;0.38;0.30;;;;;;;27.53;25.96;101266.34;5071373;28;19920;-68
2021/06/30 09:17:54;;;;;;;0.40;0.40;;;;;;;28.09;25.71;101256.03;5071836;28;20041;-68
2021/06/30 09:20:23;;;;;;;1.52;0.40;;;;;;;28.62;24.11;101245.94;5071292;28;20426;-68
2021/06/30 09:22:51;;;;;;;1.25;0.77;;;;;;;27.87;24.24;101243.59;5071604;28;20514;-68
2021/06/30 09:25:30;;;;;;;2.38;0.40;;;;;;;28.21;24.07;101241.16;5070631;28;20087;-67
2021/06/30 09:27:58;;;;;;;2.35;0.57;;;;;;;27.07;25.89;101245.88;5071371;28;20041;-68
2021/06/30 09:30:25;;;;;;;0.30;0.30;;;;;;;25.27;26.86;101246.78;5071537;28;20048;-67
2021/06/30 09:32:57;;;;;;;0.95;0.40;;;;;;;25.77;27.08;101245.66;5071943;28;20049;-67
2021/06/30 09:35:28;;;;;;;3.03;0.40;;;;;;;27.21;26.19;101246.97;5071457;28;20048;-67
2021/06/30 09:37:55;;;;;;;8.32;0.70;;;;;;;26.80;26.47;101241.97;5071591;28;20059;-67
2021/06/30 09:40:23;;;;;;;0.55;0.40;;;;;;;25.76;27.09;101246.66;5071545;28;20490;-67
2021/06/30 09:42:50;;;;;;;2.85;0.38;;;;;;;27.67;25.73;101251.31;5071414;28;20123;-67
2021/06/30 09:45:18;;;;;;;0.32;0.32;;;;;;;29.17;25.88;101246.19;5071498;28;20055;-67
2021/06/30 09:47:48;;;;;;;0.70;0.45;;;;;;;26.64;26.39;101248.25;5071251;28;20403;-68
2021/06/30 09:50:16;;;;;;;0.45;0.40;;;;;;;26.92;26.31;101248.56;5071112;28;20069;-68
2021/06/30 09:52:46;;;;;;;0.35;0.30;;;;;;;25.50;26.62;101251.41;5071309;28;20681;-67
2021/06/30 09:55:23;;;;;;;9.18;0.80;;;;;;;27.57;25.37;101244.44;5072871;28;20059;-67
2021/06/30 09:57:50;;;;;;;0.60;0.40;;;;;;;28.27;24.80;101249.44;5075179;28;20048;-67
2021/06/30 10:00:19;;;;;;;1.27;0.50;;;;;;;28.60;24.54;101249.81;5075124;28;20052;-67
2021/06/30 10:02:48;;;;;;;4.30;0.77;;;;;;;30.35;24.25;101254.25;5074986;28;20052;-69
2021/06/30 10:05:27;;;;;;;7.60;0.75;;;;;;;28.30;24.19;101247.19;5075269;28;20129;-68
2021/06/30 10:08:08;;;;;;;0.95;0.50;;;;;;;29.42;24.27;101245.75;5074928;28;20045;-69
2021/06/30 10:10:35;;;;;;;4.28;0.40;;;;;;;29.53;22.82;101258.59;5075061;28;20048;-68
2021/06/30 10:13:02;;;;;;;0.52;0.40;;;;;;;30.06;22.75;101252.72;5075292;28;20055;-68
2021/06/30 10:15:29;;;;;;;1.95;0.40;;;;;;;30.71;22.85;101253.91;5075060;28;20064;-69
2021/06/30 10:17:58;;;;;;;0.30;0.22;;;;;;;30.47;22.88;101249.94;5074608;28;20494;-68
2021/06/30 10:20:25;;;;;;;37.47;1.35;;;;;;;27.50;25.28;101256.03;5074792;28;20048;-68
2021/06/30 10:22:55;;;;;;;1.48;0.35;;;;;;;26.64;25.28;101256.28;5074670;28;20052;-69
2021/06/30 10:25:22;;;;;;;3.15;0.40;;;;;;;26.08;26.82;101249.41;5074626;28;20059;-69
2021/06/30 10:27:53;;;;;;;6.40;0.40;;;;;;;26.23;25.57;101250.31;5074562;28;20487;-68
2021/06/30 10:30:21;;;;;;;5.75;0.70;;;;;;;26.18;27.89;101261.53;5074468;28;20048;-68
2021/06/30 10:32:59;;;;;;;1.20;0.30;;;;;;;29.33;20.81;101257.66;5074958;28;20060;-68
2021/06/30 10:35:26;;;;;;;0.57;0.30;;;;;;;29.69;21.83;101262.84;5074714;28;20048;-68
2021/06/30 10:37:56;;;;;;;1.45;0.22;;;;;;;30.86;20.69;101258.28;5074824;28;20090;-69
2021/06/30 10:40:24;;;;;;;3.13;0.38;;;;;;;30.08;21.71;101259.53;5074719;28;20099;-68
2021/06/30 10:43:10;;;;;;;6.05;0.50;;;;;;;28.66;23.02;101255.22;5074638;28;20052;-70
2021/06/30 10:45:37;;;;;;;0.20;0.20;;;;;;;30.17;20.99;101263.66;5074314;28;20110;-70
2021/06/30 10:48:07;;;;;;;0.30;0.25;;;;;;;30.73;20.40;101259.06;5074059;28;20483;-69
2021/06/30 10:50:37;;;;;;;0.60;0.22;;;;;;;28.09;23.18;101252.53;5074199;28;20052;-69
2021/06/30 10:53:36;;;;;;;0.30;0.30;;;;;;;28.81;23.00;101255.16;5074474;28;20049;-68
2021/06/30 10:56:10;;;;;;;0.28;0.28;;;;;;;28.28;24.27;101259.94;5074293;28;20095;-69
2021/06/30 10:58:37;;;;;;;1.02;0.30;;;;;;;30.60;21.39;101259.88;5073826;28;20045;-69
2021/06/30 11:01:12;;;;;;;0.52;0.30;;;;;;;30.15;22.12;101263.03;5074180;28;20052;-69
2021/06/30 11:03:49;;;;;;;0.98;0.40;;;;;;;27.44;25.08;101265.63;5073740;28;20136;-69
2021/06/30 11:06:24;;;;;;;2.25;0.45;;;;;;;26.17;26.79;101264.34;5073123;28;20051;-69
2021/06/30 11:08:54;;;;;;;0.40;0.30;;;;;;;25.50;26.96;101270.06;5073818;28;20040;-68
2021/06/30 11:11:51;;;;;;;0.75;0.30;;;;;;;24.11;29.94;101273.38;5073915;28;20048;-68
2021/06/30 11:14:19;;;;;;;1.00;0.30;;;;;;;26.70;26.35;101276.91;5073840;28;20060;-68
2021/06/30 11:17:04;;;;;;;0.57;0.40;;;;;;;28.59;22.75;101272.22;5074167;28;20049;-68
2021/06/30 11:19:44;;;;;;;0.88;0.30;;;;;;;30.45;23.03;101278.03;5073276;28;20056;-68
2021/06/30 11:22:35;;;;;;;0.60;0.30;;;;;;;30.27;22.01;101267.88;5073534;28;20052;-68
2021/06/30 11:25:07;;;;;;;0.20;0.20;;;;;;;29.93;22.00;101269.56;5073798;28;20062;-68
2021/06/30 11:27:45;;;;;;;0.52;0.22;;;;;;;30.94;22.66;101274.19;5073393;28;20097;-68
2021/06/30 11:30:27;;;;;;;1.50;0.30;;;;;;;30.03;21.26;101266.50;5073808;28;20048;-69
2021/06/30 11:32:54;;;;;;;1.55;0.20;;;;;;;28.82;22.06;101272.88;5073722;28;20048;-68
2021/06/30 11:35:34;;;;;;;0.85;0.43;;;;;;;31.01;20.09;101266.97;5073391;28;20052;-69
2021/06/30 11:38:14;;;;;;;0.63;0.30;;;;;;;28.57;23.74;101259.06;5073270;28;20392;-68
2021/06/30 11:40:51;;;;;;;1.23;0.32;;;;;;;29.17;22.47;101267.63;5072847;28;20052;-69